PAIL

Iliamna Airport

Iliamna, Alaska, USA
PAIL 171132Z 1712/1812 VRB05KT P6SM BKN070 FM180200 12010G16KT P6SM FEW070
Issued Valid From Valid To
Aug-17 @ 11:32 UTC
(3 hours ago)
Aug-17 @ 12:00 UTC
(3 hours ago)
Aug-18 @ 12:00 UTC
(in 21 hours)
Aug-17 @ 12:00 to Aug-18 @ 02:00
PAIL 171132Z 1712/1812 VRB05KT P6SM BKN070
Wind Visibility Clouds
Variable at 5 knots Greater than 6 miles
  • Broken at 7,000' AGL
From Aug-18 @ 02:00 to Aug-18 @ 12:00
FM180200 12010G16KT P6SM FEW070
Wind Visibility Clouds
120° at 10 knots
 Gusting to 16 knots
Greater than 6 miles
  • Few at 7,000' AGL
PAIL 171132Z 1712/1812 VRB05KT P6SM BKN070 FM180200 12010G16KT P6SM FEW070
Issued Aug-17 @ 11:32 UTC
(3 hours ago)
Valid From Aug-17 @ 12:00 UTC
(3 hours ago)
Valid To Aug-18 @ 12:00 UTC
(in 21 hours)
Aug-17 @ 12:00 - Aug-18 @ 02:00
Wind Visibility
Variable at 5 knots Greater than 6 miles
Clouds
  • Broken at 7,000' AGL
From Aug-18 @ 02:00 - Aug-18 @ 12:00
Wind Visibility
120° at 10 knots
 Gusting to 16 knots
Greater than 6 miles
Clouds
  • Few at 7,000' AGL